createdAt,value
2022-10-25T00:00:05.227Z,16.48
2022-10-25T00:02:38.460Z,16.45
2022-10-25T00:05:05.192Z,16.43
2022-10-25T00:07:31.668Z,16.42
2022-10-25T00:09:58.143Z,16.41
2022-10-25T00:12:24.561Z,16.40
2022-10-25T00:14:51.019Z,16.38
2022-10-25T00:17:17.510Z,16.40
2022-10-25T00:19:43.971Z,16.40
2022-10-25T00:22:10.386Z,16.38
2022-10-25T00:24:36.895Z,16.40
2022-10-25T00:27:03.367Z,16.38
2022-10-25T00:29:30.039Z,16.40
2022-10-25T00:31:56.460Z,16.38
2022-10-25T00:34:22.979Z,16.39
2022-10-25T00:36:49.490Z,16.40
2022-10-25T00:39:15.959Z,16.41
2022-10-25T00:41:42.438Z,16.41
2022-10-25T00:44:27.495Z,16.43
2022-10-25T00:46:54.024Z,16.44
2022-10-25T00:49:21.653Z,16.45
2022-10-25T00:51:51.955Z,16.47
2022-10-25T00:54:20.208Z,16.48
2022-10-25T00:56:48.386Z,16.49
2022-10-25T00:59:16.980Z,16.51
2022-10-25T01:01:43.615Z,16.53
2022-10-25T01:04:11.674Z,16.54
2022-10-25T01:06:39.383Z,16.57
2022-10-25T01:09:07.128Z,16.57
2022-10-25T01:11:35.873Z,16.57
2022-10-25T01:14:02.462Z,16.58
2022-10-25T01:16:39.342Z,16.57
2022-10-25T01:19:15.064Z,16.58
2022-10-25T01:21:47.614Z,16.56
2022-10-25T01:24:37.397Z,16.56
2022-10-25T01:27:13.044Z,16.53
2022-10-25T01:29:39.488Z,16.53
2022-10-25T01:32:11.723Z,16.52
2022-10-25T01:34:44.929Z,16.53
2022-10-25T01:37:14.786Z,16.53
2022-10-25T01:39:43.806Z,16.52
2022-10-25T01:42:28.302Z,16.52
2022-10-25T01:45:03.820Z,16.52
2022-10-25T01:47:36.947Z,16.53
2022-10-25T01:50:07.449Z,16.51
2022-10-25T01:52:33.943Z,16.51
2022-10-25T01:55:00.417Z,16.52
2022-10-25T01:57:35.998Z,16.52
2022-10-25T02:00:07.422Z,16.52
2022-10-25T02:02:41.122Z,16.52
2022-10-25T02:05:16.373Z,16.52
2022-10-25T02:07:45.127Z,16.52
2022-10-25T02:10:17.752Z,16.54
2022-10-25T02:12:52.875Z,16.52
2022-10-25T02:15:39.597Z,16.52
2022-10-25T02:18:09.513Z,16.52
2022-10-25T02:20:36.095Z,16.52
2022-10-25T02:23:04.189Z,16.52
2022-10-25T02:25:32.703Z,16.53
2022-10-25T02:28:01.664Z,16.53
2022-10-25T02:30:29.020Z,16.51
2022-10-25T02:32:55.475Z,16.51
2022-10-25T02:35:22.014Z,16.51
2022-10-25T02:37:48.824Z,16.52
2022-10-25T02:40:15.742Z,16.52
2022-10-25T02:42:42.177Z,16.53
2022-10-25T02:45:08.879Z,16.52
2022-10-25T02:47:35.307Z,16.54
2022-10-25T02:50:01.796Z,16.54
2022-10-25T02:52:28.284Z,16.53
2022-10-25T02:54:54.715Z,16.54
2022-10-25T02:57:21.130Z,16.53
2022-10-25T02:59:47.563Z,16.53
2022-10-25T03:02:13.998Z,16.54
2022-10-25T03:04:40.523Z,16.54
2022-10-25T03:07:06.941Z,16.56
2022-10-25T03:09:33.398Z,16.56
2022-10-25T03:11:59.831Z,16.57
2022-10-25T03:14:26.277Z,16.58
2022-10-25T03:16:52.715Z,16.58
2022-10-25T03:19:19.154Z,16.59
2022-10-25T03:21:45.590Z,16.59
2022-10-25T03:24:12.088Z,16.59
2022-10-25T03:26:38.545Z,16.60
2022-10-25T03:29:05.049Z,16.60
2022-10-25T03:31:31.498Z,16.60
2022-10-25T03:33:57.988Z,16.60
2022-10-25T03:36:24.434Z,16.59
2022-10-25T03:38:50.946Z,16.60
2022-10-25T03:41:17.359Z,16.58
2022-10-25T03:43:43.788Z,16.59
2022-10-25T03:46:10.316Z,16.59
2022-10-25T03:48:36.748Z,16.59
2022-10-25T03:51:03.190Z,16.61
2022-10-25T03:53:29.677Z,16.59
2022-10-25T03:55:56.209Z,16.60
2022-10-25T03:58:22.636Z,16.61
2022-10-25T04:00:49.197Z,16.62
2022-10-25T04:03:15.710Z,16.63
2022-10-25T04:05:42.177Z,16.64
2022-10-25T04:08:08.613Z,16.65
2022-10-25T04:10:35.264Z,16.65
2022-10-25T04:13:01.702Z,16.65
2022-10-25T04:15:28.182Z,16.65
2022-10-25T04:17:54.659Z,16.66
2022-10-25T04:20:21.292Z,16.67
2022-10-25T04:22:55.179Z,16.66
2022-10-25T04:25:21.825Z,16.66
2022-10-25T04:27:48.637Z,16.66
2022-10-25T04:30:15.238Z,16.67
2022-10-25T04:32:41.700Z,16.67
2022-10-25T04:35:08.429Z,16.67
2022-10-25T04:37:34.845Z,16.68
2022-10-25T04:40:01.294Z,16.69
2022-10-25T04:42:27.704Z,16.70
2022-10-25T04:44:54.169Z,16.70
2022-10-25T04:47:20.596Z,16.70
2022-10-25T04:49:47.101Z,16.71
2022-10-25T04:52:13.546Z,16.70
2022-10-25T04:54:40.029Z,16.70
2022-10-25T04:57:07.244Z,16.71
2022-10-25T04:59:33.694Z,16.70
2022-10-25T05:02:00.145Z,16.70
2022-10-25T05:04:26.607Z,16.71
2022-10-25T05:06:53.079Z,16.72
2022-10-25T05:09:19.535Z,16.72
2022-10-25T05:11:45.944Z,16.72
2022-10-25T05:14:12.432Z,16.73
2022-10-25T05:16:39.380Z,16.73
2022-10-25T05:19:05.884Z,16.74
2022-10-25T05:21:32.480Z,16.74
2022-10-25T05:24:01.848Z,16.74
2022-10-25T05:26:29.065Z,16.74
2022-10-25T05:28:56.331Z,16.75
2022-10-25T05:31:27.293Z,16.76
2022-10-25T05:33:55.217Z,16.76
2022-10-25T05:36:21.765Z,16.76
2022-10-25T05:38:48.230Z,16.78
2022-10-25T05:41:15.923Z,16.77
2022-10-25T05:43:42.822Z,16.79
2022-10-25T05:46:20.468Z,16.78
2022-10-25T05:48:49.060Z,16.79
2022-10-25T05:54:09.425Z,16.80
2022-10-25T05:56:35.959Z,16.79
2022-10-25T05:59:03.712Z,16.77
2022-10-25T06:01:30.341Z,16.76
2022-10-25T06:03:56.871Z,16.75
2022-10-25T06:06:23.785Z,16.72
2022-10-25T06:08:50.474Z,16.71
2022-10-25T06:11:18.289Z,16.68
2022-10-25T06:13:44.743Z,16.67
2022-10-25T06:16:12.830Z,16.65
2022-10-25T06:18:39.520Z,16.63
2022-10-25T06:21:07.631Z,16.61
2022-10-25T06:23:37.266Z,16.60
2022-10-25T06:26:05.416Z,16.59
2022-10-25T06:28:32.341Z,16.58
2022-10-25T06:31:02.641Z,16.57
2022-10-25T06:33:29.694Z,16.54
2022-10-25T06:36:01.310Z,16.53
2022-10-25T06:38:28.375Z,16.51
2022-10-25T06:41:01.439Z,16.51
2022-10-25T06:43:28.374Z,16.49
2022-10-25T06:45:54.882Z,16.49
2022-10-25T06:48:21.765Z,16.49
2022-10-25T06:50:51.330Z,16.50
2022-10-25T06:53:18.730Z,16.49
2022-10-25T06:55:47.280Z,16.50
2022-10-25T06:58:13.727Z,16.52
2022-10-25T07:00:40.176Z,16.52
2022-10-25T07:03:06.615Z,16.52
2022-10-25T07:05:33.069Z,16.54
2022-10-25T07:07:59.570Z,16.56
2022-10-25T07:10:26.047Z,16.57
2022-10-25T07:12:52.457Z,16.59
2022-10-25T07:17:46.629Z,16.61
2022-10-25T07:20:13.335Z,16.63
2022-10-25T07:22:39.761Z,16.64
2022-10-25T07:25:06.320Z,16.66
2022-10-25T07:27:33.282Z,16.67
2022-10-25T07:29:59.765Z,16.68
2022-10-25T07:32:26.395Z,16.70
2022-10-25T07:34:52.947Z,16.70
2022-10-25T07:37:19.449Z,16.71
2022-10-25T07:39:45.869Z,16.72
2022-10-25T07:42:12.339Z,16.73
2022-10-25T07:44:38.872Z,16.74
2022-10-25T07:47:05.329Z,16.74
2022-10-25T07:49:31.828Z,16.74
2022-10-25T07:51:58.240Z,16.74
2022-10-25T07:54:24.706Z,16.75
2022-10-25T07:56:51.133Z,16.76
2022-10-25T07:59:17.596Z,16.76
2022-10-25T08:01:44.126Z,16.78
2022-10-25T08:04:10.665Z,16.79
2022-10-25T08:06:37.175Z,16.79
2022-10-25T08:09:14.242Z,16.79
2022-10-25T08:11:46.926Z,16.82
2022-10-25T08:14:13.568Z,16.80
2022-10-25T08:16:40.082Z,16.84
2022-10-25T08:19:06.581Z,16.85
2022-10-25T08:21:33.026Z,16.86
2022-10-25T08:23:59.484Z,16.88
2022-10-25T08:26:26.854Z,16.90
2022-10-25T08:28:53.317Z,16.93
2022-10-25T08:31:20.065Z,16.95
2022-10-25T08:33:46.632Z,16.97
2022-10-25T08:36:13.447Z,17.00
2022-10-25T08:38:39.892Z,17.02
2022-10-25T08:41:06.891Z,17.04
2022-10-25T08:43:39.399Z,17.04
2022-10-25T08:46:10.679Z,17.04
2022-10-25T08:48:39.340Z,17.05
2022-10-25T08:51:26.266Z,17.05
2022-10-25T08:56:27.184Z,17.04
2022-10-25T08:59:00.263Z,17.05
2022-10-25T09:01:36.825Z,17.05
2022-10-25T09:04:03.380Z,17.06
2022-10-25T09:06:36.026Z,17.06
2022-10-25T09:09:16.509Z,17.08
2022-10-25T09:11:58.144Z,17.10
2022-10-25T09:14:30.709Z,17.11
2022-10-25T09:17:04.939Z,17.13
2022-10-25T09:19:35.862Z,17.15
2022-10-25T09:22:04.399Z,17.16
2022-10-25T09:24:33.901Z,17.19
2022-10-25T09:27:07.800Z,17.24
2022-10-25T09:29:37.178Z,17.30
2022-10-25T09:32:07.864Z,17.34
2022-10-25T09:34:34.384Z,17.40
2022-10-25T09:37:13.874Z,17.47
2022-10-25T09:39:49.284Z,17.53
2022-10-25T09:42:25.215Z,17.60
2022-10-25T09:44:54.824Z,17.66
2022-10-25T09:47:26.028Z,17.70
2022-10-25T09:49:59.065Z,17.74
2022-10-25T09:52:34.832Z,17.75
2022-10-25T09:55:19.907Z,17.76
2022-10-25T09:57:46.895Z,17.77
2022-10-25T10:00:14.365Z,17.78
2022-10-25T10:02:41.387Z,17.79
2022-10-25T10:05:18.004Z,17.81
2022-10-25T10:07:49.180Z,17.82
2022-10-25T10:10:17.876Z,17.82
2022-10-25T10:15:39.311Z,17.82
2022-10-25T10:18:25.866Z,17.82
2022-10-25T10:21:13.013Z,17.81
2022-10-25T10:23:42.478Z,17.81
2022-10-25T10:26:11.636Z,17.81
2022-10-25T10:28:38.437Z,17.82
2022-10-25T10:31:06.367Z,17.84
2022-10-25T10:33:33.344Z,17.86
2022-10-25T10:36:20.028Z,17.87
2022-10-25T10:38:46.927Z,17.89
2022-10-25T10:41:23.914Z,17.94
2022-10-25T10:43:50.556Z,17.98
2022-10-25T10:46:19.953Z,18.02
2022-10-25T10:48:52.410Z,18.06
2022-10-25T10:54:15.076Z,18.31
2022-10-25T10:56:41.503Z,18.58
2022-10-25T10:59:24.096Z,18.89
2022-10-25T11:01:50.662Z,19.29
2022-10-25T11:04:17.254Z,19.65
2022-10-25T11:06:44.747Z,19.97
2022-10-25T11:09:22.526Z,20.23
2022-10-25T11:12:05.755Z,20.35
2022-10-25T11:14:32.250Z,20.37
2022-10-25T11:16:58.718Z,20.30
2022-10-25T11:19:39.734Z,20.16
2022-10-25T11:22:16.761Z,19.99
2022-10-25T11:24:43.210Z,19.82
2022-10-25T11:27:29.890Z,19.66
2022-10-25T11:30:08.344Z,19.53
2022-10-25T11:32:40.913Z,19.48
2022-10-25T11:35:10.358Z,19.59
2022-10-25T11:37:49.817Z,19.87
2022-10-25T11:40:18.212Z,20.37
2022-10-25T11:42:50.996Z,21.00
2022-10-25T11:45:23.510Z,21.64
2022-10-25T11:47:49.921Z,22.25
2022-10-25T11:50:27.374Z,22.74
2022-10-25T11:53:05.783Z,23.25
2022-10-25T11:55:40.394Z,23.59
2022-10-25T11:58:07.949Z,23.74
2022-10-25T12:00:34.643Z,23.73
2022-10-25T12:03:07.300Z,23.60
2022-10-25T12:05:51.953Z,23.37
2022-10-25T12:08:24.440Z,23.16
2022-10-25T12:10:56.711Z,23.11
2022-10-25T12:13:38.932Z,23.20
2022-10-25T12:16:09.526Z,23.39
2022-10-25T12:18:38.052Z,23.71
2022-10-25T12:21:05.824Z,24.04
2022-10-25T12:23:44.151Z,24.42
2022-10-25T12:26:16.808Z,24.81
2022-10-25T12:28:48.165Z,25.14
2022-10-25T12:31:20.531Z,25.38
2022-10-25T12:34:07.776Z,25.50
2022-10-25T12:36:34.182Z,25.51
2022-10-25T12:39:02.566Z,25.40
2022-10-25T12:41:30.596Z,25.21
2022-10-25T12:44:16.016Z,24.94
2022-10-25T12:46:51.573Z,24.59
2022-10-25T12:49:24.035Z,24.23
2022-10-25T12:51:56.498Z,23.86
2022-10-25T12:54:22.895Z,23.51
2022-10-25T12:56:57.067Z,23.20
2022-10-25T12:59:23.595Z,22.90
2022-10-25T13:01:50.360Z,22.65
2022-10-25T13:04:35.250Z,22.47
2022-10-25T13:07:04.732Z,22.28
2022-10-25T13:09:32.586Z,22.14
2022-10-25T13:12:01.122Z,21.99
2022-10-25T13:14:29.865Z,21.86
2022-10-25T13:17:16.670Z,21.80
2022-10-25T13:19:59.528Z,21.71
2022-10-25T13:22:39.239Z,21.67
2022-10-25T13:25:06.127Z,21.65
2022-10-25T13:27:33.603Z,21.63
2022-10-25T13:30:06.210Z,21.61
2022-10-25T13:32:32.751Z,21.61
2022-10-25T13:34:59.226Z,21.63
2022-10-25T13:37:31.664Z,21.63
2022-10-25T13:39:59.789Z,21.62
2022-10-25T13:45:03.100Z,21.54
2022-10-25T13:47:49.868Z,21.55
2022-10-25T13:50:28.557Z,21.60
2022-10-25T13:53:03.804Z,21.65
2022-10-25T13:55:36.589Z,21.72
2022-10-25T13:58:22.936Z,21.76
2022-10-25T14:00:52.990Z,21.83
2022-10-25T14:03:20.980Z,21.98
2022-10-25T14:05:53.521Z,22.23
2022-10-25T14:08:40.230Z,22.61
2022-10-25T14:11:16.224Z,22.99
2022-10-25T14:14:05.909Z,23.27
2022-10-25T14:16:33.859Z,23.56
2022-10-25T14:19:06.935Z,23.82
2022-10-25T14:21:34.003Z,24.12
2022-10-25T14:24:03.652Z,24.43
2022-10-25T14:26:30.076Z,24.75
2022-10-25T14:29:12.251Z,25.09
2022-10-25T14:33:25.842Z,25.67
2022-10-25T14:35:53.683Z,25.85
2022-10-25T14:38:23.426Z,26.05
2022-10-25T14:40:54.679Z,26.10
2022-10-25T14:43:36.642Z,25.99
2022-10-25T14:46:06.068Z,25.95
2022-10-25T14:48:33.895Z,25.72
2022-10-25T14:51:24.448Z,25.37
2022-10-25T14:54:04.766Z,24.90
2022-10-25T14:56:40.600Z,24.52
2022-10-25T14:59:27.673Z,24.00
2022-10-25T15:01:58.521Z,23.60
2022-10-25T15:04:31.800Z,23.18
2022-10-25T15:07:43.886Z,22.74
2022-10-25T15:10:35.989Z,22.35
2022-10-25T15:13:06.319Z,22.12
2022-10-25T15:15:42.390Z,21.80
2022-10-25T15:18:35.627Z,21.46
2022-10-25T15:21:11.187Z,21.28
2022-10-25T15:23:43.477Z,21.06
2022-10-25T15:26:28.647Z,20.80
2022-10-25T15:28:58.459Z,20.67
2022-10-25T15:31:31.362Z,20.48
2022-10-25T15:34:03.728Z,20.32
2022-10-25T15:36:32.694Z,20.20
2022-10-25T15:39:26.733Z,20.00
2022-10-25T15:42:08.431Z,19.89
2022-10-25T15:44:37.125Z,19.84
2022-10-25T15:47:03.830Z,19.73
2022-10-25T15:52:02.336Z,19.56
2022-10-25T15:54:28.820Z,19.46
2022-10-25T15:56:55.622Z,19.37
2022-10-25T16:06:56.850Z,19.10
2022-10-25T16:09:23.174Z,19.01
2022-10-25T16:11:54.136Z,18.91
2022-10-25T16:14:23.110Z,18.84
2022-10-25T16:16:50.364Z,18.77
2022-10-25T16:19:18.838Z,18.69
2022-10-25T16:21:45.545Z,18.63
2022-10-25T16:24:12.724Z,18.57
2022-10-25T16:26:40.894Z,18.51
2022-10-25T16:29:07.309Z,18.42
2022-10-25T16:31:33.683Z,18.35
2022-10-25T16:34:00.043Z,18.30
2022-10-25T16:36:26.357Z,18.23
2022-10-25T16:38:52.736Z,18.17
2022-10-25T16:41:24.267Z,18.10
2022-10-25T16:43:51.174Z,18.04
2022-10-25T16:46:18.244Z,17.98
2022-10-25T16:48:44.582Z,17.93
2022-10-25T16:51:14.079Z,17.87
2022-10-25T16:53:40.839Z,17.83
2022-10-25T16:56:09.029Z,17.77
2022-10-25T16:58:35.459Z,17.70
2022-10-25T17:01:01.789Z,17.64
2022-10-25T17:03:28.177Z,17.58
2022-10-25T17:05:54.540Z,17.53
2022-10-25T17:08:20.993Z,17.49
2022-10-25T17:10:47.333Z,17.44
2022-10-25T17:13:15.901Z,17.40
2022-10-25T17:15:42.660Z,17.37
2022-10-25T17:18:12.806Z,17.34
2022-10-25T17:20:41.591Z,17.30
2022-10-25T17:23:07.906Z,17.26
2022-10-25T17:25:34.241Z,17.21
2022-10-25T17:28:00.749Z,17.16
2022-10-25T17:30:27.130Z,17.13
2022-10-25T17:32:53.531Z,17.08
2022-10-25T17:35:25.813Z,17.04
2022-10-25T17:37:56.641Z,17.00
2022-10-25T17:40:22.953Z,16.96
2022-10-25T17:42:49.661Z,16.92
2022-10-25T17:45:16.160Z,16.89
2022-10-25T17:47:43.007Z,16.86
2022-10-25T17:50:11.105Z,16.83
2022-10-25T17:52:41.167Z,16.80
2022-10-25T17:55:10.161Z,16.77
2022-10-25T17:57:36.716Z,16.75
2022-10-25T18:00:03.680Z,16.72
2022-10-25T18:02:30.133Z,16.69
2022-10-25T18:05:18.812Z,16.65
2022-10-25T18:07:43.666Z,16.63
2022-10-25T18:10:10.363Z,16.58
2022-10-25T18:12:36.800Z,16.55
2022-10-25T18:15:04.566Z,16.53
2022-10-25T18:17:31.104Z,16.49
2022-10-25T18:19:58.115Z,16.46
2022-10-25T18:22:24.563Z,16.45
2022-10-25T18:24:51.371Z,16.41
2022-10-25T18:27:17.732Z,16.39
2022-10-25T18:29:44.148Z,16.35
2022-10-25T18:32:10.509Z,16.34
2022-10-25T18:34:36.833Z,16.32
2022-10-25T18:37:03.286Z,16.30
2022-10-25T18:39:29.607Z,16.28
2022-10-25T18:41:56.034Z,16.27
2022-10-25T18:44:22.355Z,16.26
2022-10-25T18:46:48.642Z,16.25
2022-10-25T18:49:14.999Z,16.23
2022-10-25T18:51:41.821Z,16.20
2022-10-25T18:54:09.643Z,16.20
2022-10-25T18:56:36.056Z,16.19
2022-10-25T18:59:02.616Z,16.17
2022-10-25T19:01:32.667Z,16.16
2022-10-25T19:04:01.719Z,16.13
2022-10-25T19:06:29.467Z,16.12
2022-10-25T19:08:56.297Z,16.08
2022-10-25T19:11:23.287Z,16.06
2022-10-25T19:13:53.287Z,16.02
2022-10-25T19:16:19.692Z,16.00
2022-10-25T19:18:46.053Z,15.98
2022-10-25T19:21:14.388Z,15.94
2022-10-25T19:23:42.634Z,15.92
2022-10-25T19:26:12.273Z,15.89
2022-10-25T19:28:38.644Z,15.87
2022-10-25T19:31:11.005Z,15.84
2022-10-25T19:33:37.726Z,15.85
2022-10-25T19:36:06.900Z,15.82
2022-10-25T19:38:35.207Z,15.81
2022-10-25T19:41:03.916Z,15.81
2022-10-25T19:43:30.678Z,15.81
2022-10-25T19:45:58.482Z,15.80
2022-10-25T19:48:25.710Z,15.79
2022-10-25T19:50:52.268Z,15.76
2022-10-25T19:53:21.676Z,15.74
2022-10-25T19:55:58.704Z,15.68
2022-10-25T19:58:25.527Z,15.70
2022-10-25T20:01:01.340Z,15.63
2022-10-25T20:03:28.018Z,15.63
2022-10-25T20:05:59.035Z,15.60
2022-10-25T20:08:25.666Z,15.60
2022-10-25T20:10:52.119Z,15.58
2022-10-25T20:13:19.155Z,15.57
2022-10-25T20:15:51.306Z,15.53
2022-10-25T20:18:19.633Z,15.55
2022-10-25T20:20:51.695Z,15.53
2022-10-25T20:23:20.129Z,15.51
2022-10-25T20:25:46.491Z,15.48
2022-10-25T20:28:12.901Z,15.48
2022-10-25T20:30:39.338Z,15.48
2022-10-25T20:33:06.663Z,15.45
2022-10-25T20:35:40.844Z,15.41
2022-10-25T20:38:08.461Z,15.44
2022-10-25T20:40:34.856Z,15.41
2022-10-25T20:43:01.317Z,15.41
2022-10-25T20:45:29.566Z,15.38
2022-10-25T20:48:00.014Z,15.36
2022-10-25T20:50:28.128Z,15.36
2022-10-25T20:53:10.944Z,15.36
2022-10-25T20:55:38.026Z,15.35
2022-10-25T20:58:04.787Z,15.33
2022-10-25T21:00:32.268Z,15.31
2022-10-25T21:02:59.556Z,15.30
2022-10-25T21:05:25.958Z,15.28
2022-10-25T21:07:52.346Z,15.27
2022-10-25T21:10:18.657Z,15.26
2022-10-25T21:12:44.970Z,15.24
2022-10-25T21:15:12.235Z,15.20
2022-10-25T21:17:39.006Z,15.18
2022-10-25T21:20:05.983Z,15.15
2022-10-25T21:22:32.328Z,15.14
2022-10-25T21:24:58.644Z,15.12
2022-10-25T21:27:25.063Z,15.11
2022-10-25T21:29:51.406Z,15.11
2022-10-25T21:32:17.777Z,15.08
2022-10-25T21:34:44.077Z,15.07
2022-10-25T21:37:10.678Z,15.05
2022-10-25T21:39:37.059Z,15.04
2022-10-25T21:42:03.454Z,15.03
2022-10-25T21:44:29.749Z,15.02
2022-10-25T21:46:56.121Z,15.01
2022-10-25T21:49:22.423Z,15.01
2022-10-25T21:51:48.831Z,14.98
2022-10-25T21:54:15.234Z,14.96
2022-10-25T21:56:41.580Z,14.95
2022-10-25T21:59:07.915Z,14.91
2022-10-25T22:01:34.457Z,14.91
2022-10-25T22:04:00.890Z,14.89
2022-10-25T22:06:27.584Z,14.87
2022-10-25T22:08:55.298Z,14.85
2022-10-25T22:11:24.344Z,14.82
2022-10-25T22:13:56.413Z,14.79
2022-10-25T22:16:24.248Z,14.80
2022-10-25T22:18:57.517Z,14.78
2022-10-25T22:21:24.580Z,14.77
2022-10-25T22:23:51.134Z,14.75
2022-10-25T22:26:19.866Z,14.72
2022-10-25T22:28:47.136Z,14.73
2022-10-25T22:31:17.941Z,14.69
2022-10-25T22:33:45.228Z,14.70
2022-10-25T22:36:13.212Z,14.68
2022-10-25T22:38:39.614Z,14.66
2022-10-25T22:41:09.365Z,14.64
2022-10-25T22:43:36.369Z,14.63
2022-10-25T22:46:05.341Z,14.61
2022-10-25T22:48:33.343Z,14.59
2022-10-25T22:51:00.471Z,14.58
2022-10-25T22:53:27.554Z,14.57
2022-10-25T22:55:54.965Z,14.55
2022-10-25T22:58:22.068Z,14.53
2022-10-25T23:00:48.597Z,14.52
2022-10-25T23:03:15.271Z,14.51
2022-10-25T23:05:41.676Z,14.50
2022-10-25T23:08:08.366Z,14.49
2022-10-25T23:10:34.724Z,14.48
2022-10-25T23:13:01.016Z,14.46
2022-10-25T23:15:27.339Z,14.46
2022-10-25T23:17:53.650Z,14.44
2022-10-25T23:20:19.943Z,14.44
2022-10-25T23:22:46.574Z,14.45
2022-10-25T23:25:13.118Z,14.42
2022-10-25T23:27:39.429Z,14.42
2022-10-25T23:30:09.830Z,14.41
2022-10-25T23:32:38.714Z,14.40
2022-10-25T23:35:05.544Z,14.44
2022-10-25T23:37:31.864Z,14.42
2022-10-25T23:39:58.158Z,14.40
2022-10-25T23:42:24.496Z,14.38
2022-10-25T23:44:50.825Z,14.38
2022-10-25T23:47:17.147Z,14.37
2022-10-25T23:49:43.477Z,14.36
2022-10-25T23:52:09.804Z,14.36
2022-10-25T23:54:36.119Z,14.35
2022-10-25T23:57:02.432Z,14.34
2022-10-25T23:59:28.758Z,14.34
